Time,TemperatureF,DewpointF,PressureIn,WindDirection,WindDirectionDegrees,WindSpeedMPH,WindSpeedGustMPH,Humidity,HourlyPrecipIn,Conditions,Clouds,dailyrainin,SolarRadiationWatts/m^2,SoftwareType,DateUTC
2013-02-11 00:00:00,30.6,11.9,30.00,East,83,0.0,-999.0,48,-99.99,,,0.00,0.0,cwc,2013-02-11 07:00:00,
2013-02-11 00:05:00,29.1,9.7,29.99,East,83,1.0,-999.0,46,-99.99,,,0.00,0.0,cwc,2013-02-11 07:05:00,
2013-02-11 00:10:00,28.8,9.7,29.99,East,83,0.0,-999.0,47,-99.99,,,0.00,0.0,cwc,2013-02-11 07:10:00,
2013-02-11 00:15:00,28.5,9.4,29.99,East,83,2.0,-999.0,47,-99.99,,,0.00,0.0,cwc,2013-02-11 07:15:00,
2013-02-11 00:20:00,28.4,9.7,29.98,East,83,0.0,-999.0,48,-99.99,,,0.00,0.0,cwc,2013-02-11 07:20:00,
2013-02-11 00:25:00,28.4,9.7,29.98,East,83,0.0,-999.0,48,-99.99,,,0.00,0.0,cwc,2013-02-11 07:25:00,
2013-02-11 00:30:00,28.2,9.5,29.98,East,83,0.0,-999.0,48,-99.99,,,0.00,0.0,cwc,2013-02-11 07:30:00,
2013-02-11 00:35:00,28.1,9.4,29.98,East,83,0.0,-999.0,48,-99.99,,,0.00,0.0,cwc,2013-02-11 07:35:00,
2013-02-11 00:40:00,27.8,9.4,29.98,East,85,0.0,-999.0,49,-99.99,,,0.00,0.0,cwc,2013-02-11 07:40:00,
2013-02-11 00:45:00,27.5,8.8,29.98,East,85,2.0,-999.0,48,-99.99,,,0.00,0.0,cwc,2013-02-11 07:45:00,
2013-02-11 00:50:00,27.2,8.8,29.98,East,85,1.0,-999.0,49,-99.99,,,0.00,0.0,cwc,2013-02-11 07:50:00,
2013-02-11 00:55:00,26.9,8.9,29.98,East,85,0.0,-999.0,50,-99.99,,,0.00,0.0,cwc,2013-02-11 07:55:00,
2013-02-11 01:00:00,26.7,9.1,29.98,East,85,0.0,-999.0,51,-99.99,,,0.00,0.0,cwc,2013-02-11 08:00:00,
2013-02-11 01:05:00,26.4,8.8,30.00,East,85,0.0,-999.0,51,-99.99,,,0.00,0.0,cwc,2013-02-11 08:05:00,
2013-02-11 01:10:00,26.1,8.8,30.00,East,85,2.0,-999.0,52,-99.99,,,0.00,0.0,cwc,2013-02-11 08:10:00,
2013-02-11 01:15:00,25.8,8.5,30.00,East,85,1.0,-999.0,52,-99.99,,,0.00,0.0,cwc,2013-02-11 08:15:00,
2013-02-11 01:20:00,25.7,8.4,29.98,East,85,0.0,-999.0,52,-99.99,,,0.00,0.0,cwc,2013-02-11 08:20:00,
2013-02-11 01:30:00,25.1,7.8,29.98,East,85,1.0,-999.0,52,-99.99,,,0.00,0.0,cwc,2013-02-11 08:30:00,
2013-02-11 01:35:00,25.0,7.7,30.00,East,85,2.0,-999.0,52,-99.99,,,0.00,0.0,cwc,2013-02-11 08:35:00,
2013-02-11 01:40:00,24.8,7.9,30.00,East,85,0.0,-999.0,53,-99.99,,,0.00,0.0,cwc,2013-02-11 08:40:00,
2013-02-11 01:45:00,24.7,7.8,30.00,East,85,2.0,-999.0,53,-99.99,,,0.00,0.0,cwc,2013-02-11 08:45:00,
2013-02-11 01:50:00,24.7,7.8,30.00,East,85,1.0,-999.0,53,-99.99,,,0.00,0.0,cwc,2013-02-11 08:50:00,
2013-02-11 01:55:00,24.5,7.9,30.00,East,85,0.0,-999.0,54,-99.99,,,0.00,0.0,cwc,2013-02-11 08:55:00,
2013-02-11 02:00:00,24.5,7.9,30.00,East,85,0.0,-999.0,54,-99.99,,,0.00,0.0,cwc,2013-02-11 09:00:00,
2013-02-11 02:05:00,24.4,7.8,30.00,East,85,0.0,-999.0,54,-99.99,,,0.00,0.0,cwc,2013-02-11 09:05:00,
2013-02-11 02:10:00,24.2,8.0,30.00,East,85,2.0,-999.0,55,-99.99,,,0.00,0.0,cwc,2013-02-11 09:10:00,
2013-02-11 02:15:00,24.2,8.0,30.00,East,85,2.0,-999.0,55,-99.99,,,0.00,0.0,cwc,2013-02-11 09:15:00,
2013-02-11 02:20:00,24.1,7.9,30.00,East,92,0.0,-999.0,55,-99.99,,,0.00,0.0,cwc,2013-02-11 09:20:00,
2013-02-11 02:25:00,24.2,9.4,30.00,East,92,0.0,-999.0,59,-99.99,,,0.00,0.0,cwc,2013-02-11 09:25:00,
2013-02-11 02:30:00,24.1,7.9,30.00,ESE,102,0.0,-999.0,55,-99.99,,,0.00,0.0,cwc,2013-02-11 09:30:00,
2013-02-11 02:35:00,23.9,8.1,30.00,East,97,2.0,-999.0,56,-99.99,,,0.00,0.0,cwc,2013-02-11 09:35:00,
2013-02-11 02:40:00,23.8,8.0,30.00,East,97,0.0,-999.0,56,-99.99,,,0.00,0.0,cwc,2013-02-11 09:40:00,
2013-02-11 02:45:00,23.6,8.5,30.00,East,97,0.0,-999.0,58,-99.99,,,0.00,0.0,cwc,2013-02-11 09:45:00,
2013-02-11 02:50:00,23.5,8.0,30.00,East,97,0.0,-999.0,57,-99.99,,,0.00,0.0,cwc,2013-02-11 09:50:00,
2013-02-11 02:55:00,23.3,8.2,30.00,East,97,0.0,-999.0,58,-99.99,,,0.00,0.0,cwc,2013-02-11 09:55:00,
2013-02-11 03:00:00,23.3,8.2,30.00,East,97,0.0,-999.0,58,-99.99,,,0.00,0.0,cwc,2013-02-11 10:00:00,
2013-02-11 03:05:00,23.2,8.1,29.99,East,97,0.0,-999.0,58,-99.99,,,0.00,0.0,cwc,2013-02-11 10:05:00,
2013-02-11 03:10:00,23.0,8.2,29.99,East,97,0.0,-999.0,59,-99.99,,,0.00,0.0,cwc,2013-02-11 10:10:00,
2013-02-11 03:15:00,22.9,8.1,29.99,East,97,0.0,-999.0,59,-99.99,,,0.00,0.0,cwc,2013-02-11 10:15:00,
2013-02-11 03:20:00,22.7,7.9,30.02,East,97,0.0,-999.0,59,-99.99,,,0.00,0.0,cwc,2013-02-11 10:20:00,
2013-02-11 03:25:00,22.7,8.3,30.02,East,97,0.0,-999.0,60,-99.99,,,0.00,0.0,cwc,2013-02-11 10:25:00,
2013-02-11 03:30:00,22.5,8.1,30.02,East,97,0.0,-999.0,60,-99.99,,,0.00,0.0,cwc,2013-02-11 10:30:00,
2013-02-11 03:35:00,22.5,8.1,30.01,East,97,0.0,-999.0,60,-99.99,,,0.00,0.0,cwc,2013-02-11 10:35:00,
2013-02-11 03:40:00,22.5,8.1,30.01,East,97,0.0,-999.0,60,-99.99,,,0.00,0.0,cwc,2013-02-11 10:40:00,
2013-02-11 03:45:00,23.5,9.1,30.01,East,97,0.0,-999.0,60,-99.99,,,0.00,0.0,cwc,2013-02-11 10:45:00,
2013-02-11 03:50:00,24.4,13.2,30.00,East,97,0.0,-999.0,69,-99.99,,,0.00,0.0,cwc,2013-02-11 10:50:00,
2013-02-11 03:55:00,23.9,12.0,30.00,East,97,0.0,-999.0,67,-99.99,,,0.00,0.0,cwc,2013-02-11 10:55:00,
2013-02-11 04:00:00,30.3,18.4,30.00,East,97,0.0,-999.0,67,-99.99,,,0.00,0.0,cwc,2013-02-11 11:00:00,
2013-02-11 04:05:00,25.7,0.5,29.97,East,97,0.0,-999.0,30,-99.99,,,0.00,0.0,cwc,2013-02-11 11:05:00,
2013-02-11 04:10:00,25.3,15.6,29.97,East,97,0.0,-999.0,73,-99.99,,,0.00,0.0,cwc,2013-02-11 11:10:00,
2013-02-11 04:15:00,24.5,14.4,29.97,East,97,0.0,-999.0,72,-99.99,,,0.00,0.0,cwc,2013-02-11 11:15:00,
2013-02-11 04:20:00,25.1,16.1,29.98,East,97,0.0,-999.0,75,-99.99,,,0.00,0.0,cwc,2013-02-11 11:20:00,
2013-02-11 04:25:00,27.0,16.2,29.98,East,97,0.0,-999.0,70,-99.99,,,0.00,0.0,cwc,2013-02-11 11:25:00,
2013-02-11 04:30:00,27.0,19.1,29.98,East,97,0.0,-999.0,78,-99.99,,,0.00,0.0,cwc,2013-02-11 11:30:00,
2013-02-11 04:35:00,28.7,19.7,30.00,East,97,0.0,-999.0,75,-99.99,,,0.00,0.0,cwc,2013-02-11 11:35:00,
2013-02-11 04:40:00,32.8,22.4,30.00,East,97,0.0,-999.0,71,-99.99,,,0.00,0.0,cwc,2013-02-11 11:40:00,
2013-02-11 04:45:00,30.4,-4.9,30.00,East,97,0.0,-999.0,2,-99.99,,,0.00,0.0,cwc,2013-02-11 11:45:00,
2013-02-11 04:50:00,27.9,21.1,29.99,East,97,0.0,-999.0,81,-99.99,,,0.00,0.0,cwc,2013-02-11 11:50:00,
2013-02-11 04:55:00,26.7,17.3,29.99,East,97,0.0,-999.0,74,-99.99,,,0.00,0.0,cwc,2013-02-11 11:55:00,
2013-02-11 05:00:00,26.6,18.0,29.99,East,97,0.0,-999.0,76,-99.99,,,0.00,0.0,cwc,2013-02-11 12:00:00,
2013-02-11 05:05:00,25.3,14.9,30.01,East,97,2.0,-999.0,71,-99.99,,,0.00,0.0,cwc,2013-02-11 12:05:00,
2013-02-11 05:10:00,25.4,13.9,30.01,East,97,0.0,-999.0,68,-99.99,,,0.00,0.0,cwc,2013-02-11 12:10:00,
2013-02-11 05:15:00,25.3,14.1,30.01,East,97,0.0,-999.0,69,-99.99,,,0.00,0.0,cwc,2013-02-11 12:15:00,
2013-02-11 05:25:00,24.8,12.6,30.01,East,97,0.0,-999.0,66,-99.99,,,0.00,0.0,cwc,2013-02-11 12:25:00,
2013-02-11 05:30:00,24.7,12.1,30.01,East,97,0.0,-999.0,65,-99.99,,,0.00,0.0,cwc,2013-02-11 12:30:00,
2013-02-11 05:35:00,28.5,-3.9,30.01,East,97,0.0,-999.0,10,-99.99,,,0.00,0.0,cwc,2013-02-11 12:35:00,
2013-02-11 05:40:00,28.1,-2.1,30.01,East,97,0.0,-999.0,16,-99.99,,,0.00,0.0,cwc,2013-02-11 12:40:00,
2013-02-11 05:45:00,26.4,19.2,30.01,East,97,0.0,-999.0,80,-99.99,,,0.00,0.0,cwc,2013-02-11 12:45:00,
2013-02-11 05:50:00,34.6,26.3,29.99,East,97,0.0,-999.0,77,-99.99,,,0.00,0.0,cwc,2013-02-11 12:50:00,
2013-02-11 05:55:00,31.9,0.2,29.99,East,97,0.0,-999.0,12,-99.99,,,0.00,0.0,cwc,2013-02-11 12:55:00,
2013-02-11 06:00:00,29.3,1.9,29.99,East,97,0.0,-999.0,24,-99.99,,,0.00,0.0,cwc,2013-02-11 13:00:00,
2013-02-11 06:05:00,28.2,1.2,29.99,East,97,0.0,-999.0,25,-99.99,,,0.00,0.0,cwc,2013-02-11 13:05:00,
2013-02-11 06:10:00,27.6,-4.1,29.99,East,97,0.0,-999.0,12,-99.99,,,0.00,0.0,cwc,2013-02-11 13:10:00,
2013-02-11 06:15:00,26.0,-5.7,29.99,East,97,0.0,-999.0,12,-99.99,,,0.00,0.0,cwc,2013-02-11 13:15:00,
2013-02-11 06:20:00,25.6,-5.4,30.01,East,97,0.0,-999.0,14,-99.99,,,0.00,0.0,cwc,2013-02-11 13:20:00,
2013-02-11 06:30:00,25.3,-5.3,30.01,East,97,0.0,-999.0,15,-99.99,,,0.00,0.0,cwc,2013-02-11 13:30:00,
2013-02-11 06:35:00,25.1,-5.5,30.02,East,97,0.0,-999.0,15,-99.99,,,0.00,0.0,cwc,2013-02-11 13:35:00,
2013-02-11 06:40:00,24.8,-5.4,30.02,East,97,2.0,-999.0,16,-99.99,,,0.00,0.0,cwc,2013-02-11 13:40:00,
2013-02-11 06:45:00,24.5,-5.7,30.02,East,97,0.0,-999.0,16,-99.99,,,0.00,0.0,cwc,2013-02-11 13:45:00,
2013-02-11 06:50:00,24.5,14.4,29.97,East,97,0.0,-999.0,72,-99.99,,,0.00,0.0,cwc,2013-02-11 13:50:00,
2013-02-11 06:55:00,26.1,14.6,29.97,East,97,0.0,-999.0,68,-99.99,,,0.00,0.0,cwc,2013-02-11 13:55:00,
2013-02-11 07:00:00,27.8,5.8,29.97,East,97,0.0,-999.0,39,-99.99,,,0.00,0.0,cwc,2013-02-11 14:00:00,
2013-02-11 07:05:00,28.7,10.0,30.00,East,97,0.0,-999.0,48,-99.99,,,0.00,0.0,cwc,2013-02-11 14:05:00,
2013-02-11 07:10:00,27.8,21.7,30.00,East,97,0.0,-999.0,83,-99.99,,,0.00,0.0,cwc,2013-02-11 14:10:00,
2013-02-11 07:15:00,28.5,21.3,30.00,East,97,0.0,-999.0,80,-99.99,,,0.00,0.0,cwc,2013-02-11 14:15:00,
2013-02-11 07:20:00,27.2,20.7,30.02,East,97,0.0,-999.0,82,-99.99,,,0.00,0.0,cwc,2013-02-11 14:20:00,
2013-02-11 07:25:00,26.4,18.8,30.02,East,97,0.0,-999.0,79,-99.99,,,0.00,0.0,cwc,2013-02-11 14:25:00,
2013-02-11 07:30:00,25.8,16.8,30.02,East,97,0.0,-999.0,75,-99.99,,,0.00,0.0,cwc,2013-02-11 14:30:00,
2013-02-11 07:35:00,26.1,16.7,30.04,East,97,0.0,-999.0,74,-99.99,,,0.00,0.0,cwc,2013-02-11 14:35:00,
2013-02-11 07:40:00,26.0,16.6,30.04,East,97,0.0,-999.0,74,-99.99,,,0.00,0.0,cwc,2013-02-11 14:40:00,
2013-02-11 07:45:00,25.6,15.9,30.04,East,97,0.0,-999.0,73,-99.99,,,0.00,0.0,cwc,2013-02-11 14:45:00,
2013-02-11 07:50:00,25.4,15.3,30.04,East,97,0.0,-999.0,72,-99.99,,,0.00,0.0,cwc,2013-02-11 14:50:00,
2013-02-11 07:55:00,26.4,16.0,30.04,East,97,0.0,-999.0,71,-99.99,,,0.00,0.0,cwc,2013-02-11 14:55:00,
2013-02-11 08:00:00,26.1,16.4,30.04,East,97,0.0,-999.0,73,-99.99,,,0.00,0.0,cwc,2013-02-11 15:00:00,
2013-02-11 08:05:00,26.3,16.2,30.04,East,97,0.0,-999.0,72,-99.99,,,0.00,0.0,cwc,2013-02-11 15:05:00,
2013-02-11 08:10:00,27.2,17.1,30.04,East,97,0.0,-999.0,72,-99.99,,,0.00,0.0,cwc,2013-02-11 15:10:00,
2013-02-11 08:15:00,27.6,17.2,30.04,SSW,210,6.0,-999.0,71,-99.99,,,0.00,0.0,cwc,2013-02-11 15:15:00,
2013-02-11 08:20:00,27.9,16.4,30.03,SW,223,8.0,-999.0,68,-99.99,,,0.00,0.0,cwc,2013-02-11 15:20:00,
2013-02-11 08:25:00,28.1,15.9,30.03,SW,232,6.0,-999.0,66,-99.99,,,0.00,0.0,cwc,2013-02-11 15:25:00,
2013-02-11 08:30:00,29.0,16.0,30.03,SW,227,4.0,-999.0,64,-99.99,,,0.00,0.0,cwc,2013-02-11 15:30:00,
2013-02-11 08:35:00,29.7,17.5,30.03,SW,222,6.0,-999.0,66,-99.99,,,0.00,0.0,cwc,2013-02-11 15:35:00,
2013-02-11 08:40:00,29.4,15.0,30.03,SW,224,7.0,-999.0,60,-99.99,,,0.00,0.0,cwc,2013-02-11 15:40:00,
2013-02-11 08:45:00,30.0,15.6,30.03,SSW,193,4.0,-999.0,60,-99.99,,,0.00,0.0,cwc,2013-02-11 15:45:00,
2013-02-11 08:50:00,30.3,16.3,30.02,SW,224,2.0,-999.0,61,-99.99,,,0.00,0.0,cwc,2013-02-11 15:50:00,
2013-02-11 08:55:00,30.1,13.9,30.02,SW,224,6.0,-999.0,55,-99.99,,,0.00,0.0,cwc,2013-02-11 15:55:00,
2013-02-11 09:00:00,30.9,16.1,30.02,SW,222,1.0,-999.0,59,-99.99,,,0.00,0.0,cwc,2013-02-11 16:00:00,
2013-02-11 09:05:00,30.7,14.1,30.02,WSW,240,8.0,-999.0,54,-99.99,,,0.00,0.0,cwc,2013-02-11 16:05:00,
2013-02-11 09:10:00,31.0,13.7,30.02,SW,222,2.0,-999.0,52,-99.99,,,0.00,0.0,cwc,2013-02-11 16:10:00,
2013-02-11 09:15:00,31.2,13.9,30.02,SW,223,6.0,-999.0,52,-99.99,,,0.00,0.0,cwc,2013-02-11 16:15:00,
2013-02-11 09:20:00,31.2,13.2,30.04,SW,233,9.0,-999.0,50,-99.99,,,0.00,0.0,cwc,2013-02-11 16:20:00,
2013-02-11 09:30:00,31.5,12.8,30.04,WSW,246,9.0,-999.0,48,-99.99,,,0.00,0.0,cwc,2013-02-11 16:30:00,
2013-02-11 09:35:00,31.6,12.5,30.03,WSW,243,4.0,-999.0,47,-99.99,,,0.00,0.0,cwc,2013-02-11 16:35:00,
2013-02-11 09:40:00,31.9,12.8,30.03,SW,233,4.0,-999.0,47,-99.99,,,0.00,0.0,cwc,2013-02-11 16:40:00,
2013-02-11 09:45:00,31.9,12.8,30.03,WSW,258,6.0,-999.0,47,-99.99,,,0.00,0.0,cwc,2013-02-11 16:45:00,
2013-02-11 09:50:00,32.4,13.0,30.03,West,280,7.0,-999.0,46,-99.99,,,0.00,0.0,cwc,2013-02-11 16:50:00,
2013-02-11 09:55:00,32.9,14.2,30.03,West,277,1.0,-999.0,48,-99.99,,,0.00,0.0,cwc,2013-02-11 16:55:00,
2013-02-11 10:00:00,32.9,13.1,30.03,SW,234,6.0,-999.0,45,-99.99,,,0.00,0.0,cwc,2013-02-11 17:00:00,
2013-02-11 10:05:00,33.1,13.3,30.02,WSW,237,7.0,-999.0,45,-99.99,,,0.00,0.0,cwc,2013-02-11 17:05:00,
2013-02-11 10:10:00,33.1,13.3,30.02,NW,304,8.0,-999.0,45,-99.99,,,0.00,0.0,cwc,2013-02-11 17:10:00,
2013-02-11 10:15:00,33.2,14.1,30.02,SW,233,10.0,-999.0,47,-99.99,,,0.00,0.0,cwc,2013-02-11 17:15:00,
2013-02-11 10:20:00,33.4,14.0,30.04,WSW,246,8.0,-999.0,46,-99.99,,,0.00,0.0,cwc,2013-02-11 17:20:00,
2013-02-11 10:25:00,33.8,13.3,30.04,West,267,6.0,-999.0,43,-99.99,,,0.00,0.0,cwc,2013-02-11 17:25:00,
2013-02-11 10:30:00,33.8,12.9,30.04,West,260,6.0,-999.0,42,-99.99,,,0.00,0.0,cwc,2013-02-11 17:30:00,
2013-02-11 10:35:00,33.8,12.6,30.03,NW,309,2.0,-999.0,41,-99.99,,,0.00,0.0,cwc,2013-02-11 17:35:00,
2013-02-11 10:40:00,34.6,13.7,30.03,West,272,6.0,-999.0,42,-99.99,,,0.00,0.0,cwc,2013-02-11 17:40:00,
2013-02-11 10:45:00,35.2,13.6,30.03,West,265,9.0,-999.0,40,-99.99,,,0.00,0.0,cwc,2013-02-11 17:45:00,
2013-02-11 10:50:00,34.7,14.2,30.02,SSW,208,8.0,-999.0,43,-99.99,,,0.00,0.0,cwc,2013-02-11 17:50:00,
2013-02-11 10:55:00,34.9,12.9,30.02,WSW,244,7.0,-999.0,39,-99.99,,,0.00,0.0,cwc,2013-02-11 17:55:00,
2013-02-11 11:00:00,35.8,14.2,30.02,SW,234,4.0,-999.0,40,-99.99,,,0.00,0.0,cwc,2013-02-11 18:00:00,
2013-02-11 11:05:00,36.3,14.3,30.01,WSW,257,7.0,-999.0,39,-99.99,,,0.00,0.0,cwc,2013-02-11 18:05:00,
2013-02-11 11:10:00,35.8,12.4,30.01,SW,219,10.0,-999.0,35,-99.99,,,0.00,0.0,cwc,2013-02-11 18:10:00,
2013-02-11 11:15:00,36.2,13.5,30.01,West,260,11.0,-999.0,37,-99.99,,,0.00,0.0,cwc,2013-02-11 18:15:00,
2013-02-11 11:20:00,36.2,13.5,30.00,WSW,237,4.0,-999.0,37,-99.99,,,0.00,0.0,cwc,2013-02-11 18:20:00,
2013-02-11 11:25:00,36.6,13.2,30.00,WNW,289,8.0,-999.0,35,-99.99,,,0.00,0.0,cwc,2013-02-11 18:25:00,
2013-02-11 11:30:00,36.9,13.5,30.00,WSW,247,8.0,-999.0,35,-99.99,,,0.00,0.0,cwc,2013-02-11 18:30:00,
2013-02-11 11:35:00,37.2,14.2,29.98,WSW,247,10.0,-999.0,36,-99.99,,,0.00,0.0,cwc,2013-02-11 18:35:00,
2013-02-11 11:45:00,37.6,13.8,29.98,WNW,285,10.0,-999.0,34,-99.99,,,0.00,0.0,cwc,2013-02-11 18:45:00,
2013-02-11 11:50:00,37.8,13.3,29.97,West,281,8.0,-999.0,32,-99.99,,,0.00,0.0,cwc,2013-02-11 18:50:00,
2013-02-11 11:55:00,37.3,12.8,29.97,SW,217,7.0,-999.0,32,-99.99,,,0.00,0.0,cwc,2013-02-11 18:55:00,
2013-02-11 12:00:00,38.0,13.5,29.97,WSW,247,10.0,-999.0,32,-99.99,,,0.00,0.0,cwc,2013-02-11 19:00:00,
2013-02-11 12:05:00,38.6,15.2,29.97,West,261,9.0,-999.0,35,-99.99,,,0.00,0.0,cwc,2013-02-11 19:05:00,
2013-02-11 12:10:00,39.1,13.2,29.97,SSE,165,10.0,-999.0,28,-99.99,,,0.00,0.0,cwc,2013-02-11 19:10:00,
2013-02-11 12:15:00,39.1,14.3,29.97,SSE,168,11.0,-999.0,31,-99.99,,,0.00,0.0,cwc,2013-02-11 19:15:00,
2013-02-11 12:20:00,39.1,13.9,29.96,South,179,9.0,-999.0,30,-99.99,,,0.00,0.0,cwc,2013-02-11 19:20:00,
2013-02-11 12:25:00,39.3,13.4,29.96,WSW,243,26.0,-999.0,28,-99.99,,,0.00,0.0,cwc,2013-02-11 19:25:00,
2013-02-11 12:30:00,38.3,13.1,29.96,SW,216,11.0,-999.0,30,-99.99,,,0.00,0.0,cwc,2013-02-11 19:30:00,
2013-02-11 12:35:00,40.1,15.6,29.96,South,185,8.0,-999.0,32,-99.99,,,0.00,0.0,cwc,2013-02-11 19:35:00,
2013-02-11 12:40:00,38.9,13.0,29.96,South,175,9.0,-999.0,28,-99.99,,,0.00,0.0,cwc,2013-02-11 19:40:00,
2013-02-11 12:45:00,38.5,12.9,29.96,SW,232,10.0,-999.0,29,-99.99,,,0.00,0.0,cwc,2013-02-11 19:45:00,
2013-02-11 12:50:00,39.5,16.1,29.94,WSW,237,8.0,-999.0,35,-99.99,,,0.00,0.0,cwc,2013-02-11 19:50:00,
2013-02-11 12:55:00,38.5,12.9,29.94,SSW,200,9.0,-999.0,29,-99.99,,,0.00,0.0,cwc,2013-02-11 19:55:00,
2013-02-11 13:00:00,38.6,12.7,29.94,SSE,168,11.0,-999.0,28,-99.99,,,0.00,0.0,cwc,2013-02-11 20:00:00,
2013-02-11 13:05:00,38.9,14.8,29.94,SSE,167,9.0,-999.0,33,-99.99,,,0.00,0.0,cwc,2013-02-11 20:05:00,
2013-02-11 13:10:00,39.1,12.8,29.94,WSW,241,6.0,-999.0,27,-99.99,,,0.00,0.0,cwc,2013-02-11 20:10:00,
2013-02-11 13:15:00,39.2,12.9,29.94,SW,230,11.0,-999.0,27,-99.99,,,0.00,0.0,cwc,2013-02-11 20:15:00,
2013-02-11 13:20:00,38.9,11.5,29.95,SSW,209,6.0,-999.0,24,-99.99,,,0.00,0.0,cwc,2013-02-11 20:20:00,
2013-02-11 13:25:00,38.9,10.8,29.95,SW,224,11.0,-999.0,22,-99.99,,,0.00,0.0,cwc,2013-02-11 20:25:00,
2013-02-11 13:30:00,38.9,11.2,29.95,WSW,244,13.0,-999.0,23,-99.99,,,0.00,0.0,cwc,2013-02-11 20:30:00,
2013-02-11 13:40:00,38.8,10.4,29.94,WSW,244,9.0,-999.0,21,-99.99,,,0.00,0.0,cwc,2013-02-11 20:40:00,
2013-02-11 13:45:00,38.2,9.0,29.94,WSW,240,11.0,-999.0,19,-99.99,,,0.00,0.0,cwc,2013-02-11 20:45:00,
2013-02-11 13:50:00,38.8,11.4,29.95,SSW,206,11.0,-999.0,24,-99.99,,,0.00,0.0,cwc,2013-02-11 20:50:00,
2013-02-11 13:55:00,38.5,9.7,29.95,West,268,7.0,-999.0,20,-99.99,,,0.00,0.0,cwc,2013-02-11 20:55:00,
2013-02-11 14:00:00,38.6,10.5,29.95,SW,215,10.0,-999.0,22,-99.99,,,0.00,0.0,cwc,2013-02-11 21:00:00,
2013-02-11 14:05:00,38.6,10.2,29.93,WSW,247,6.0,-999.0,21,-99.99,,,0.00,0.0,cwc,2013-02-11 21:05:00,
2013-02-11 14:10:00,38.3,9.5,29.93,SSW,213,13.0,-999.0,20,-99.99,,,0.00,0.0,cwc,2013-02-11 21:10:00,
2013-02-11 14:15:00,38.5,10.8,29.93,West,274,17.0,-999.0,23,-99.99,,,0.00,0.0,cwc,2013-02-11 21:15:00,
2013-02-11 14:20:00,38.8,10.7,29.94,South,176,10.0,-999.0,22,-99.99,,,0.00,0.0,cwc,2013-02-11 21:20:00,
2013-02-11 14:25:00,38.5,10.1,29.94,WSW,244,13.0,-999.0,21,-99.99,,,0.00,0.0,cwc,2013-02-11 21:25:00,
2013-02-11 14:30:00,38.6,9.8,29.94,WSW,243,14.0,-999.0,20,-99.99,,,0.00,0.0,cwc,2013-02-11 21:30:00,
2013-02-11 14:35:00,39.1,11.7,29.95,SSW,202,17.0,-999.0,24,-99.99,,,0.00,0.0,cwc,2013-02-11 21:35:00,
2013-02-11 14:40:00,39.2,11.5,29.95,SW,216,4.0,-999.0,23,-99.99,,,0.00,0.0,cwc,2013-02-11 21:40:00,
2013-02-11 14:45:00,38.6,10.2,29.95,West,263,10.0,-999.0,21,-99.99,,,0.00,0.0,cwc,2013-02-11 21:45:00,
2013-02-11 14:50:00,38.3,10.2,29.94,NW,315,9.0,-999.0,22,-99.99,,,0.00,0.0,cwc,2013-02-11 21:50:00,
2013-02-11 14:55:00,38.5,10.4,29.94,West,280,10.0,-999.0,22,-99.99,,,0.00,0.0,cwc,2013-02-11 21:55:00,
2013-02-11 15:00:00,37.8,10.1,29.94,West,272,11.0,-999.0,23,-99.99,,,0.00,0.0,cwc,2013-02-11 22:00:00,
2013-02-11 15:05:00,37.9,10.5,29.96,West,271,13.0,-999.0,24,-99.99,,,0.00,0.0,cwc,2013-02-11 22:05:00,
2013-02-11 15:10:00,37.9,11.3,29.96,WSW,244,8.0,-999.0,26,-99.99,,,0.00,0.0,cwc,2013-02-11 22:10:00,
2013-02-11 15:15:00,37.8,10.8,29.96,West,281,6.0,-999.0,25,-99.99,,,0.00,0.0,cwc,2013-02-11 22:15:00,
2013-02-11 15:20:00,37.6,11.0,29.93,WSW,258,10.0,-999.0,26,-99.99,,,0.00,0.0,cwc,2013-02-11 22:20:00,
2013-02-11 15:25:00,37.8,10.4,29.93,NW,305,8.0,-999.0,24,-99.99,,,0.00,0.0,cwc,2013-02-11 22:25:00,
2013-02-11 15:30:00,38.0,10.6,29.93,SW,219,22.0,-999.0,24,-99.99,,,0.00,0.0,cwc,2013-02-11 22:30:00,
2013-02-11 15:35:00,37.6,10.6,29.93,WSW,243,10.0,-999.0,25,-99.99,,,0.00,0.0,cwc,2013-02-11 22:35:00,
2013-02-11 15:40:00,37.5,10.9,29.93,West,275,6.0,-999.0,26,-99.99,,,0.00,0.0,cwc,2013-02-11 22:40:00,
2013-02-11 15:45:00,37.6,10.6,29.93,WSW,254,8.0,-999.0,25,-99.99,,,0.00,0.0,cwc,2013-02-11 22:45:00,
2013-02-11 15:55:00,37.3,9.9,29.93,West,261,10.0,-999.0,24,-99.99,,,0.00,0.0,cwc,2013-02-11 22:55:00,
2013-02-11 16:00:00,37.6,10.6,29.93,West,272,8.0,-999.0,25,-99.99,,,0.00,0.0,cwc,2013-02-11 23:00:00,
2013-02-11 16:05:00,37.6,10.6,29.93,WSW,247,2.0,-999.0,25,-99.99,,,0.00,0.0,cwc,2013-02-11 23:05:00,
2013-02-11 16:10:00,37.5,10.5,29.93,West,278,6.0,-999.0,25,-99.99,,,0.00,0.0,cwc,2013-02-11 23:10:00,
2013-02-11 16:15:00,37.3,11.7,29.93,WNW,295,13.0,-999.0,29,-99.99,,,0.00,0.0,cwc,2013-02-11 23:15:00,
2013-02-11 16:20:00,36.3,13.3,29.93,WNW,298,8.0,-999.0,36,-99.99,,,0.00,0.0,cwc,2013-02-11 23:20:00,
2013-02-11 16:25:00,35.9,13.2,29.93,NW,305,7.0,-999.0,37,-99.99,,,0.00,0.0,cwc,2013-02-11 23:25:00,
2013-02-11 16:30:00,35.6,14.0,29.93,NW,304,10.0,-999.0,40,-99.99,,,0.00,0.0,cwc,2013-02-11 23:30:00,
2013-02-11 16:35:00,35.3,13.3,29.94,North,349,16.0,-999.0,39,-99.99,,,0.00,0.0,cwc,2013-02-11 23:35:00,
2013-02-11 16:40:00,35.0,13.4,29.94,NW,322,9.0,-999.0,40,-99.99,,,0.00,0.0,cwc,2013-02-11 23:40:00,
2013-02-11 16:45:00,34.9,13.3,29.94,WNW,301,6.0,-999.0,40,-99.99,,,0.00,0.0,cwc,2013-02-11 23:45:00,
2013-02-11 16:55:00,34.3,15.2,29.95,North,6,11.0,-999.0,47,-99.99,,,0.00,0.0,cwc,2013-02-11 23:55:00,
2013-02-11 17:00:00,34.0,15.6,29.95,WNW,296,8.0,-999.0,49,-99.99,,,0.00,0.0,cwc,2013-02-12 00:00:00,
2013-02-11 17:05:00,33.8,15.8,29.97,NNW,337,7.0,-999.0,50,-99.99,,,0.00,0.0,cwc,2013-02-12 00:05:00,
2013-02-11 17:10:00,33.5,15.5,29.97,WNW,282,6.0,-999.0,50,-99.99,,,0.00,0.0,cwc,2013-02-12 00:10:00,
2013-02-11 17:15:00,33.4,15.8,29.97,WNW,299,4.0,-999.0,51,-99.99,,,0.00,0.0,cwc,2013-02-12 00:15:00,
2013-02-11 17:20:00,33.2,15.6,29.96,WNW,301,16.0,-999.0,51,-99.99,,,0.00,0.0,cwc,2013-02-12 00:20:00,
2013-02-11 17:25:00,32.8,14.4,29.96,NNW,330,10.0,-999.0,49,-99.99,,,0.00,0.0,cwc,2013-02-12 00:25:00,
2013-02-11 17:30:00,32.4,15.5,29.96,West,274,16.0,-999.0,53,-99.99,,,0.00,0.0,cwc,2013-02-12 00:30:00,
2013-02-11 17:35:00,31.9,16.1,29.99,WNW,292,14.0,-999.0,56,-99.99,,,0.00,0.0,cwc,2013-02-12 00:35:00,
2013-02-11 17:40:00,31.3,16.2,29.99,WNW,292,8.0,-999.0,58,-99.99,,,0.00,0.0,cwc,2013-02-12 00:40:00,
2013-02-11 17:45:00,31.0,16.6,29.99,WNW,301,8.0,-999.0,60,-99.99,,,0.00,0.0,cwc,2013-02-12 00:45:00,
2013-02-11 17:50:00,31.0,16.6,30.00,WNW,298,7.0,-999.0,60,-99.99,,,0.00,0.0,cwc,2013-02-12 00:50:00,
2013-02-11 17:55:00,30.9,17.2,30.00,WNW,291,8.0,-999.0,62,-99.99,,,0.00,0.0,cwc,2013-02-12 00:55:00,
2013-02-11 18:00:00,31.0,17.3,30.00,NW,315,4.0,-999.0,62,-99.99,,,0.00,0.0,cwc,2013-02-12 01:00:00,
2013-02-11 18:05:00,30.9,17.2,30.01,NW,315,8.0,-999.0,62,-99.99,,,0.00,0.0,cwc,2013-02-12 01:05:00,
2013-02-11 18:10:00,31.2,16.8,30.01,NNW,337,0.0,-999.0,60,-99.99,,,0.00,0.0,cwc,2013-02-12 01:10:00,
2013-02-11 18:15:00,35.6,22.3,30.01,NW,326,0.0,-999.0,63,-99.99,,,0.00,0.0,cwc,2013-02-12 01:15:00,
2013-02-11 18:20:00,33.4,4.2,30.00,SSW,196,4.0,-999.0,19,-99.99,,,0.00,0.0,cwc,2013-02-12 01:20:00,
2013-02-11 18:25:00,32.1,19.9,30.00,SSW,195,0.0,-999.0,66,-99.99,,,0.00,0.0,cwc,2013-02-12 01:25:00,
2013-02-11 18:30:00,32.1,18.8,30.00,SSW,195,0.0,-999.0,63,-99.99,,,0.00,0.0,cwc,2013-02-12 01:30:00,
2013-02-11 18:35:00,31.9,19.3,30.01,SSW,195,0.0,-999.0,65,-99.99,,,0.00,0.0,cwc,2013-02-12 01:35:00,
2013-02-11 18:40:00,32.4,19.8,30.01,SSW,195,0.0,-999.0,65,-99.99,,,0.00,0.0,cwc,2013-02-12 01:40:00,
2013-02-11 18:45:00,33.1,21.6,30.01,South,179,6.0,-999.0,68,-99.99,,,0.00,0.0,cwc,2013-02-12 01:45:00,
2013-02-11 18:50:00,31.8,17.8,30.02,SSE,157,2.0,-999.0,61,-99.99,,,0.00,0.0,cwc,2013-02-12 01:50:00,
2013-02-11 18:55:00,34.7,22.8,30.02,SSE,157,0.0,-999.0,67,-99.99,,,0.00,0.0,cwc,2013-02-12 01:55:00,
2013-02-11 19:00:00,32.2,22.1,30.02,NE,54,2.0,-999.0,72,-99.99,,,0.00,0.0,cwc,2013-02-12 02:00:00,
2013-02-11 19:05:00,31.2,18.2,30.03,ESE,102,8.0,-999.0,64,-99.99,,,0.00,0.0,cwc,2013-02-12 02:05:00,
2013-02-11 19:15:00,30.3,20.2,30.03,ENE,76,0.0,-999.0,72,-99.99,,,0.00,0.0,cwc,2013-02-12 02:15:00,
2013-02-11 19:20:00,29.8,21.5,30.07,NNE,17,4.0,-999.0,77,-99.99,,,0.00,0.0,cwc,2013-02-12 02:20:00,
2013-02-11 19:25:00,29.1,21.5,30.07,NNE,17,0.0,-999.0,79,-99.99,,,0.00,0.0,cwc,2013-02-12 02:25:00,
2013-02-11 19:30:00,29.1,22.3,30.07,NNE,17,0.0,-999.0,81,-99.99,,,0.00,0.0,cwc,2013-02-12 02:30:00,
2013-02-11 19:35:00,28.8,21.2,30.08,NNE,17,0.0,-999.0,79,-99.99,,,0.00,0.0,cwc,2013-02-12 02:35:00,
2013-02-11 19:40:00,28.8,22.3,30.08,NNE,17,0.0,-999.0,82,-99.99,,,0.00,0.0,cwc,2013-02-12 02:40:00,
2013-02-11 19:45:00,28.7,21.9,30.08,NNE,17,0.0,-999.0,81,-99.99,,,0.00,0.0,cwc,2013-02-12 02:45:00,
2013-02-11 19:50:00,28.7,21.9,30.08,NNE,17,0.0,-999.0,81,-99.99,,,0.00,0.0,cwc,2013-02-12 02:50:00,
2013-02-11 20:00:00,28.7,19.7,30.08,NNE,17,0.0,-999.0,75,-99.99,,,0.00,0.0,cwc,2013-02-12 03:00:00,
2013-02-11 20:05:00,28.7,20.4,30.09,NNE,17,0.0,-999.0,77,-99.99,,,0.00,0.0,cwc,2013-02-12 03:05:00,
2013-02-11 20:10:00,28.5,-7.5,30.09,NNE,17,0.0,-999.0,0,-99.99,,,0.00,0.0,cwc,2013-02-12 03:10:00,
2013-02-11 20:15:00,28.4,-7.6,30.09,NNE,17,0.0,-999.0,0,-99.99,,,0.00,0.0,cwc,2013-02-12 03:15:00,
2013-02-11 20:20:00,28.5,-7.5,30.07,NNE,17,0.0,-999.0,0,-99.99,,,0.00,0.0,cwc,2013-02-12 03:20:00,
2013-02-11 20:25:00,28.4,-7.6,30.07,NNE,17,0.0,-999.0,0,-99.99,,,0.00,0.0,cwc,2013-02-12 03:25:00,
2013-02-11 20:30:00,29.1,-6.9,30.07,NNE,17,0.0,-999.0,0,-99.99,,,0.00,0.0,cwc,2013-02-12 03:30:00,
2013-02-11 20:35:00,30.0,-6.0,30.06,NNE,17,0.0,-999.0,0,-99.99,,,0.00,0.0,cwc,2013-02-12 03:35:00,
2013-02-11 20:40:00,41.6,5.6,30.06,NNE,17,0.0,-999.0,0,-99.99,,,0.00,0.0,cwc,2013-02-12 03:40:00,
2013-02-11 20:45:00,34.1,34.1,30.06,NNE,17,0.0,-999.0,100,-99.99,,,0.00,0.0,cwc,2013-02-12 03:45:00,
2013-02-11 20:55:00,30.6,30.6,30.01,NNE,17,0.0,-999.0,100,-99.99,,,0.00,0.0,cwc,2013-02-12 03:55:00,
2013-02-11 21:00:00,29.8,-0.4,30.01,NNE,17,0.0,-999.0,16,-99.99,,,0.00,0.0,cwc,2013-02-12 04:00:00,
2013-02-11 21:05:00,29.4,3.5,30.06,NNE,17,0.0,-999.0,28,-99.99,,,0.00,0.0,cwc,2013-02-12 04:05:00,
2013-02-11 21:10:00,29.0,6.3,30.06,NNE,17,0.0,-999.0,37,-99.99,,,0.00,0.0,cwc,2013-02-12 04:10:00,
2013-02-11 21:15:00,28.7,7.5,30.06,NNE,17,0.0,-999.0,41,-99.99,,,0.00,0.0,cwc,2013-02-12 04:15:00,
2013-02-11 21:20:00,29.7,9.5,30.04,NNE,17,0.0,-999.0,44,-99.99,,,0.00,0.0,cwc,2013-02-12 04:20:00,
2013-02-11 21:25:00,30.9,10.7,30.04,NNE,17,0.0,-999.0,44,-99.99,,,0.00,0.0,cwc,2013-02-12 04:25:00,
2013-02-11 21:30:00,29.7,2.3,30.04,NNE,17,0.0,-999.0,24,-99.99,,,0.00,0.0,cwc,2013-02-12 04:30:00,
2013-02-11 21:35:00,29.3,5.2,30.05,NNE,17,0.0,-999.0,33,-99.99,,,0.00,0.0,cwc,2013-02-12 04:35:00,
2013-02-11 21:40:00,28.8,7.9,30.05,NNE,17,0.0,-999.0,42,-99.99,,,0.00,0.0,cwc,2013-02-12 04:40:00,
2013-02-11 21:45:00,28.7,8.2,30.05,NNE,17,0.0,-999.0,43,-99.99,,,0.00,0.0,cwc,2013-02-12 04:45:00,
2013-02-11 21:50:00,28.5,2.2,30.01,NNE,17,0.0,-999.0,27,-99.99,,,0.00,0.0,cwc,2013-02-12 04:50:00,
2013-02-11 21:55:00,28.5,2.2,30.01,NNE,17,0.0,-999.0,27,-99.99,,,0.00,0.0,cwc,2013-02-12 04:55:00,
2013-02-11 22:00:00,28.5,2.2,30.01,NNE,17,0.0,-999.0,27,-99.99,,,0.00,0.0,cwc,2013-02-12 05:00:00,
2013-02-11 22:05:00,28.5,2.2,30.07,NNE,17,0.0,-999.0,27,-99.99,,,0.00,0.0,cwc,2013-02-12 05:05:00,
2013-02-11 22:10:00,28.2,1.9,30.07,NNE,17,0.0,-999.0,27,-99.99,,,0.00,0.0,cwc,2013-02-12 05:10:00,
2013-02-11 22:15:00,28.2,2.3,30.07,NNE,17,0.0,-999.0,28,-99.99,,,0.00,0.0,cwc,2013-02-12 05:15:00,
2013-02-11 22:25:00,28.4,2.5,30.04,NNE,17,0.0,-999.0,28,-99.99,,,0.00,0.0,cwc,2013-02-12 05:25:00,
2013-02-11 22:30:00,28.2,2.3,30.04,NNE,17,0.0,-999.0,28,-99.99,,,0.00,0.0,cwc,2013-02-12 05:30:00,
2013-02-11 22:35:00,28.5,2.6,30.04,NNE,17,0.0,-999.0,28,-99.99,,,0.00,0.0,cwc,2013-02-12 05:35:00,
2013-02-11 22:40:00,28.4,2.1,30.04,NNE,17,0.0,-999.0,27,-99.99,,,0.00,0.0,cwc,2013-02-12 05:40:00,
2013-02-11 22:45:00,28.4,2.1,30.04,NNE,17,0.0,-999.0,27,-99.99,,,0.00,0.0,cwc,2013-02-12 05:45:00,
2013-02-11 22:50:00,28.4,2.1,30.04,NNE,17,0.0,-999.0,27,-99.99,,,0.00,0.0,cwc,2013-02-12 05:50:00,
2013-02-11 22:55:00,28.2,1.9,30.04,NNE,17,0.0,-999.0,27,-99.99,,,0.00,0.0,cwc,2013-02-12 05:55:00,
2013-02-11 23:00:00,28.2,1.9,30.04,NNE,17,0.0,-999.0,27,-99.99,,,0.00,0.0,cwc,2013-02-12 06:00:00,
2013-02-11 23:05:00,28.2,1.9,30.03,NNE,17,0.0,-999.0,27,-99.99,,,0.00,0.0,cwc,2013-02-12 06:05:00,
2013-02-11 23:10:00,28.1,2.2,30.03,NNE,17,0.0,-999.0,28,-99.99,,,0.00,0.0,cwc,2013-02-12 06:10:00,
2013-02-11 23:15:00,28.4,2.5,30.03,NNE,17,0.0,-999.0,28,-99.99,,,0.00,0.0,cwc,2013-02-12 06:15:00,
2013-02-11 23:20:00,28.1,2.2,30.01,NNE,17,0.0,-999.0,28,-99.99,,,0.00,0.0,cwc,2013-02-12 06:20:00,
2013-02-11 23:25:00,27.9,1.6,30.01,NNE,17,0.0,-999.0,27,-99.99,,,0.00,0.0,cwc,2013-02-12 06:25:00,
2013-02-11 23:30:00,27.8,1.5,30.01,NNE,17,0.0,-999.0,27,-99.99,,,0.00,0.0,cwc,2013-02-12 06:30:00,
2013-02-11 23:35:00,27.5,0.5,30.01,NNE,17,0.0,-999.0,25,-99.99,,,0.00,0.0,cwc,2013-02-12 06:35:00,
2013-02-11 23:40:00,28.8,7.6,30.01,NNE,17,0.0,-999.0,41,-99.99,,,0.00,0.0,cwc,2013-02-12 06:40:00,
2013-02-11 23:45:00,28.1,3.3,30.01,NNE,17,0.0,-999.0,31,-99.99,,,0.00,0.0,cwc,2013-02-12 06:45:00,
2013-02-11 23:50:00,27.6,1.7,30.01,NNE,17,0.0,-999.0,28,-99.99,,,0.00,0.0,cwc,2013-02-12 06:50:00,
2013-02-11 23:55:00,32.5,13.4,30.01,NNE,17,0.0,-999.0,47,-99.99,,,0.00,0.0,cwc,2013-02-12 06:55:00,